sensor_id;sensor_type;location;lat;lon;timestamp;P1;durP1;ratioP1;P2;durP2;ratioP2
52033;SDS011;38045;52.988;6.536;2023-05-07T00:02:20;17.70;;;13.13;;
52033;SDS011;38045;52.988;6.536;2023-05-07T00:04:46;15.95;;;14.38;;
52033;SDS011;38045;52.988;6.536;2023-05-07T00:07:12;16.70;;;14.93;;
52033;SDS011;38045;52.988;6.536;2023-05-07T00:09:37;14.80;;;13.07;;
52033;SDS011;38045;52.988;6.536;2023-05-07T00:12:03;16.33;;;14.63;;
52033;SDS011;38045;52.988;6.536;2023-05-07T00:14:28;16.90;;;15.05;;
52033;SDS011;38045;52.988;6.536;2023-05-07T00:16:54;15.38;;;13.75;;
52033;SDS011;38045;52.988;6.536;2023-05-07T00:19:20;18.63;;;15.65;;
52033;SDS011;38045;52.988;6.536;2023-05-07T00:21:46;15.88;;;13.57;;
52033;SDS011;38045;52.988;6.536;2023-05-07T00:24:11;16.77;;;15.10;;
52033;SDS011;38045;52.988;6.536;2023-05-07T00:26:37;17.48;;;15.73;;
52033;SDS011;38045;52.988;6.536;2023-05-07T00:29:03;20.10;;;18.02;;
52033;SDS011;38045;52.988;6.536;2023-05-07T00:31:28;19.65;;;16.50;;
52033;SDS011;38045;52.988;6.536;2023-05-07T00:33:54;20.67;;;17.00;;
52033;SDS011;38045;52.988;6.536;2023-05-07T00:36:19;18.30;;;16.42;;
52033;SDS011;38045;52.988;6.536;2023-05-07T00:38:45;18.92;;;16.50;;
52033;SDS011;38045;52.988;6.536;2023-05-07T00:41:10;21.50;;;16.50;;
52033;SDS011;38045;52.988;6.536;2023-05-07T00:43:36;20.02;;;17.95;;
52033;SDS011;38045;52.988;6.536;2023-05-07T00:46:03;23.67;;;21.02;;
52033;SDS011;38045;52.988;6.536;2023-05-07T00:48:28;18.98;;;17.02;;
52033;SDS011;38045;52.988;6.536;2023-05-07T00:50:55;25.45;;;20.90;;
52033;SDS011;38045;52.988;6.536;2023-05-07T00:53:21;25.20;;;20.17;;
52033;SDS011;38045;52.988;6.536;2023-05-07T00:55:47;20.95;;;17.50;;
52033;SDS011;38045;52.988;6.536;2023-05-07T00:58:13;23.67;;;19.05;;
52033;SDS011;38045;52.988;6.536;2023-05-07T01:00:39;21.20;;;18.63;;
52033;SDS011;38045;52.988;6.536;2023-05-07T01:03:05;20.17;;;18.20;;
52033;SDS011;38045;52.988;6.536;2023-05-07T01:05:31;22.38;;;20.15;;
52033;SDS011;38045;52.988;6.536;2023-05-07T01:07:57;25.08;;;21.60;;
52033;SDS011;38045;52.988;6.536;2023-05-07T01:10:23;25.50;;;20.92;;
52033;SDS011;38045;52.988;6.536;2023-05-07T01:12:49;23.52;;;20.92;;
52033;SDS011;38045;52.988;6.536;2023-05-07T01:15:16;21.30;;;19.08;;
52033;SDS011;38045;52.988;6.536;2023-05-07T01:17:42;26.13;;;19.75;;
52033;SDS011;38045;52.988;6.536;2023-05-07T01:20:08;24.27;;;21.60;;
52033;SDS011;38045;52.988;6.536;2023-05-07T01:22:39;24.02;;;20.83;;
52033;SDS011;38045;52.988;6.536;2023-05-07T01:25:05;25.60;;;21.70;;
52033;SDS011;38045;52.988;6.536;2023-05-07T01:27:33;26.00;;;22.08;;
52033;SDS011;38045;52.988;6.536;2023-05-07T01:30:00;27.70;;;23.48;;
52033;SDS011;38045;52.988;6.536;2023-05-07T01:32:38;24.05;;;20.98;;
52033;SDS011;38045;52.988;6.536;2023-05-07T01:35:07;23.75;;;21.27;;
52033;SDS011;38045;52.988;6.536;2023-05-07T01:37:37;27.17;;;21.83;;
52033;SDS011;38045;52.988;6.536;2023-05-07T01:40:04;31.65;;;23.85;;
52033;SDS011;38045;52.988;6.536;2023-05-07T01:42:32;25.38;;;22.33;;
52033;SDS011;38045;52.988;6.536;2023-05-07T01:44:58;24.33;;;21.40;;
52033;SDS011;38045;52.988;6.536;2023-05-07T01:47:24;23.58;;;20.92;;
52033;SDS011;38045;52.988;6.536;2023-05-07T01:49:51;24.73;;;22.05;;
52033;SDS011;38045;52.988;6.536;2023-05-07T01:52:16;26.08;;;22.73;;
52033;SDS011;38045;52.988;6.536;2023-05-07T01:54:42;26.23;;;23.13;;
52033;SDS011;38045;52.988;6.536;2023-05-07T01:57:08;28.60;;;22.63;;
52033;SDS011;38045;52.988;6.536;2023-05-07T01:59:33;27.92;;;23.27;;
52033;SDS011;38045;52.988;6.536;2023-05-07T02:01:59;26.90;;;22.40;;
52033;SDS011;38045;52.988;6.536;2023-05-07T02:04:25;34.80;;;27.13;;
52033;SDS011;38045;52.988;6.536;2023-05-07T02:06:51;25.70;;;23.08;;
52033;SDS011;38045;52.988;6.536;2023-05-07T02:09:17;24.10;;;21.63;;
52033;SDS011;38045;52.988;6.536;2023-05-07T02:11:43;26.90;;;24.02;;
52033;SDS011;38045;52.988;6.536;2023-05-07T02:14:09;29.52;;;26.45;;
52033;SDS011;38045;52.988;6.536;2023-05-07T02:16:35;28.02;;;25.02;;
52033;SDS011;38045;52.988;6.536;2023-05-07T02:19:00;28.85;;;24.42;;
52033;SDS011;38045;52.988;6.536;2023-05-07T02:21:26;31.50;;;27.50;;
52033;SDS011;38045;52.988;6.536;2023-05-07T02:23:52;31.85;;;24.23;;
52033;SDS011;38045;52.988;6.536;2023-05-07T02:26:17;30.27;;;26.40;;
52033;SDS011;38045;52.988;6.536;2023-05-07T02:28:43;30.05;;;26.98;;
52033;SDS011;38045;52.988;6.536;2023-05-07T02:31:09;33.95;;;27.70;;
52033;SDS011;38045;52.988;6.536;2023-05-07T02:33:34;30.67;;;23.90;;
52033;SDS011;38045;52.988;6.536;2023-05-07T02:36:10;31.63;;;25.27;;
52033;SDS011;38045;52.988;6.536;2023-05-07T02:38:37;31.38;;;27.05;;
52033;SDS011;38045;52.988;6.536;2023-05-07T02:41:03;31.50;;;26.83;;
52033;SDS011;38045;52.988;6.536;2023-05-07T02:43:29;29.45;;;23.55;;
52033;SDS011;38045;52.988;6.536;2023-05-07T02:46:04;31.70;;;28.17;;
52033;SDS011;38045;52.988;6.536;2023-05-07T02:48:31;35.63;;;26.50;;
52033;SDS011;38045;52.988;6.536;2023-05-07T02:50:57;32.40;;;27.73;;
52033;SDS011;38045;52.988;6.536;2023-05-07T02:53:23;33.05;;;27.95;;
52033;SDS011;38045;52.988;6.536;2023-05-07T02:55:51;33.05;;;28.27;;
52033;SDS011;38045;52.988;6.536;2023-05-07T02:58:17;34.70;;;27.77;;
52033;SDS011;38045;52.988;6.536;2023-05-07T03:00:43;35.63;;;27.58;;
52033;SDS011;38045;52.988;6.536;2023-05-07T03:03:08;33.65;;;28.45;;
52033;SDS011;38045;52.988;6.536;2023-05-07T03:05:34;34.00;;;28.50;;
52033;SDS011;38045;52.988;6.536;2023-05-07T03:08:00;38.90;;;31.67;;
52033;SDS011;38045;52.988;6.536;2023-05-07T03:10:25;35.58;;;29.67;;
52033;SDS011;38045;52.988;6.536;2023-05-07T03:12:51;40.40;;;31.38;;
52033;SDS011;38045;52.988;6.536;2023-05-07T03:15:16;35.58;;;29.88;;
52033;SDS011;38045;52.988;6.536;2023-05-07T03:17:42;40.00;;;33.50;;
52033;SDS011;38045;52.988;6.536;2023-05-07T03:20:07;46.03;;;33.30;;
52033;SDS011;38045;52.988;6.536;2023-05-07T03:22:34;39.90;;;32.33;;
52033;SDS011;38045;52.988;6.536;2023-05-07T03:25:00;45.88;;;33.58;;
52033;SDS011;38045;52.988;6.536;2023-05-07T03:27:25;46.65;;;33.38;;
52033;SDS011;38045;52.988;6.536;2023-05-07T03:29:51;45.35;;;34.17;;
52033;SDS011;38045;52.988;6.536;2023-05-07T03:32:16;49.50;;;34.42;;
52033;SDS011;38045;52.988;6.536;2023-05-07T03:34:42;44.30;;;35.58;;
52033;SDS011;38045;52.988;6.536;2023-05-07T03:37:08;41.65;;;34.15;;
52033;SDS011;38045;52.988;6.536;2023-05-07T03:39:33;46.47;;;34.45;;
52033;SDS011;38045;52.988;6.536;2023-05-07T03:41:59;47.78;;;34.88;;
52033;SDS011;38045;52.988;6.536;2023-05-07T03:44:25;41.47;;;32.47;;
52033;SDS011;38045;52.988;6.536;2023-05-07T03:46:51;45.63;;;35.33;;
52033;SDS011;38045;52.988;6.536;2023-05-07T03:49:16;43.55;;;32.50;;
52033;SDS011;38045;52.988;6.536;2023-05-07T03:51:42;49.15;;;36.40;;
52033;SDS011;38045;52.988;6.536;2023-05-07T03:54:08;49.80;;;37.63;;
52033;SDS011;38045;52.988;6.536;2023-05-07T03:56:33;46.33;;;33.33;;
52033;SDS011;38045;52.988;6.536;2023-05-07T03:59:00;40.47;;;32.15;;
52033;SDS011;38045;52.988;6.536;2023-05-07T04:01:26;48.28;;;35.58;;
52033;SDS011;38045;52.988;6.536;2023-05-07T04:03:51;49.58;;;38.30;;
52033;SDS011;38045;52.988;6.536;2023-05-07T04:06:17;44.80;;;33.30;;
52033;SDS011;38045;52.988;6.536;2023-05-07T04:08:43;59.40;;;39.33;;
52033;SDS011;38045;52.988;6.536;2023-05-07T04:11:08;38.72;;;32.00;;
52033;SDS011;38045;52.988;6.536;2023-05-07T04:13:34;47.92;;;35.90;;
52033;SDS011;38045;52.988;6.536;2023-05-07T04:16:01;46.47;;;35.22;;
52033;SDS011;38045;52.988;6.536;2023-05-07T04:18:27;46.08;;;33.70;;
52033;SDS011;38045;52.988;6.536;2023-05-07T04:20:53;42.97;;;33.03;;
52033;SDS011;38045;52.988;6.536;2023-05-07T04:23:19;47.42;;;35.88;;
52033;SDS011;38045;52.988;6.536;2023-05-07T04:25:45;48.20;;;32.53;;
52033;SDS011;38045;52.988;6.536;2023-05-07T04:28:10;42.92;;;34.30;;
52033;SDS011;38045;52.988;6.536;2023-05-07T04:30:36;43.90;;;32.95;;
52033;SDS011;38045;52.988;6.536;2023-05-07T04:33:02;44.90;;;36.20;;
52033;SDS011;38045;52.988;6.536;2023-05-07T04:35:28;49.67;;;34.08;;
52033;SDS011;38045;52.988;6.536;2023-05-07T04:37:53;41.13;;;35.67;;
52033;SDS011;38045;52.988;6.536;2023-05-07T04:40:19;41.20;;;33.45;;
52033;SDS011;38045;52.988;6.536;2023-05-07T04:42:45;39.90;;;29.85;;
52033;SDS011;38045;52.988;6.536;2023-05-07T04:45:10;45.00;;;33.95;;
52033;SDS011;38045;52.988;6.536;2023-05-07T04:47:37;35.65;;;31.10;;
52033;SDS011;38045;52.988;6.536;2023-05-07T04:50:03;42.10;;;33.22;;
52033;SDS011;38045;52.988;6.536;2023-05-07T04:52:29;41.63;;;33.22;;
52033;SDS011;38045;52.988;6.536;2023-05-07T04:54:55;45.30;;;33.05;;
52033;SDS011;38045;52.988;6.536;2023-05-07T04:57:20;40.10;;;32.40;;
52033;SDS011;38045;52.988;6.536;2023-05-07T04:59:46;41.88;;;32.10;;
52033;SDS011;38045;52.988;6.536;2023-05-07T05:02:11;46.05;;;36.30;;
52033;SDS011;38045;52.988;6.536;2023-05-07T05:04:37;37.92;;;30.10;;
52033;SDS011;38045;52.988;6.536;2023-05-07T05:07:03;41.85;;;32.47;;
52033;SDS011;38045;52.988;6.536;2023-05-07T05:09:29;39.08;;;31.63;;
52033;SDS011;38045;52.988;6.536;2023-05-07T05:11:55;39.67;;;31.33;;
52033;SDS011;38045;52.988;6.536;2023-05-07T05:14:20;40.70;;;30.85;;
52033;SDS011;38045;52.988;6.536;2023-05-07T05:16:46;41.67;;;32.42;;
52033;SDS011;38045;52.988;6.536;2023-05-07T05:19:12;38.63;;;28.17;;
52033;SDS011;38045;52.988;6.536;2023-05-07T05:21:37;38.47;;;30.02;;
52033;SDS011;38045;52.988;6.536;2023-05-07T05:24:03;36.63;;;28.40;;
52033;SDS011;38045;52.988;6.536;2023-05-07T05:26:28;38.83;;;29.35;;
52033;SDS011;38045;52.988;6.536;2023-05-07T05:28:54;38.25;;;29.77;;
52033;SDS011;38045;52.988;6.536;2023-05-07T05:31:20;40.58;;;31.05;;
52033;SDS011;38045;52.988;6.536;2023-05-07T05:33:46;32.72;;;28.55;;
52033;SDS011;38045;52.988;6.536;2023-05-07T05:36:11;34.03;;;29.35;;
52033;SDS011;38045;52.988;6.536;2023-05-07T05:38:38;36.53;;;29.85;;
52033;SDS011;38045;52.988;6.536;2023-05-07T05:41:04;31.10;;;26.00;;
52033;SDS011;38045;52.988;6.536;2023-05-07T05:43:30;37.65;;;28.88;;
52033;SDS011;38045;52.988;6.536;2023-05-07T05:45:56;31.70;;;26.52;;
52033;SDS011;38045;52.988;6.536;2023-05-07T05:48:22;32.50;;;26.58;;
52033;SDS011;38045;52.988;6.536;2023-05-07T05:50:48;33.50;;;28.13;;
52033;SDS011;38045;52.988;6.536;2023-05-07T05:53:14;37.88;;;29.33;;
52033;SDS011;38045;52.988;6.536;2023-05-07T05:55:40;28.38;;;23.98;;
52033;SDS011;38045;52.988;6.536;2023-05-07T05:58:06;34.33;;;28.60;;
52033;SDS011;38045;52.988;6.536;2023-05-07T06:00:32;36.63;;;27.52;;
52033;SDS011;38045;52.988;6.536;2023-05-07T06:02:58;34.13;;;28.63;;
52033;SDS011;38045;52.988;6.536;2023-05-07T06:05:23;32.50;;;27.27;;
52033;SDS011;38045;52.988;6.536;2023-05-07T06:07:49;36.97;;;26.73;;
52033;SDS011;38045;52.988;6.536;2023-05-07T06:10:14;31.75;;;26.90;;
52033;SDS011;38045;52.988;6.536;2023-05-07T06:12:40;32.10;;;27.38;;
52033;SDS011;38045;52.988;6.536;2023-05-07T06:15:06;34.45;;;26.92;;
52033;SDS011;38045;52.988;6.536;2023-05-07T06:17:31;31.83;;;28.40;;
52033;SDS011;38045;52.988;6.536;2023-05-07T06:19:57;32.83;;;26.92;;
52033;SDS011;38045;52.988;6.536;2023-05-07T06:22:23;32.08;;;26.55;;
52033;SDS011;38045;52.988;6.536;2023-05-07T06:24:48;27.65;;;24.65;;
52033;SDS011;38045;52.988;6.536;2023-05-07T06:27:14;31.30;;;27.70;;
52033;SDS011;38045;52.988;6.536;2023-05-07T06:29:39;31.33;;;25.80;;
52033;SDS011;38045;52.988;6.536;2023-05-07T06:32:12;31.27;;;25.27;;
52033;SDS011;38045;52.988;6.536;2023-05-07T06:34:38;37.60;;;27.40;;
52033;SDS011;38045;52.988;6.536;2023-05-07T06:37:04;32.70;;;23.83;;
52033;SDS011;38045;52.988;6.536;2023-05-07T06:39:30;29.30;;;26.13;;
52033;SDS011;38045;52.988;6.536;2023-05-07T06:41:56;32.28;;;25.33;;
52033;SDS011;38045;52.988;6.536;2023-05-07T06:44:22;34.97;;;27.77;;
52033;SDS011;38045;52.988;6.536;2023-05-07T06:46:48;35.42;;;27.92;;
52033;SDS011;38045;52.988;6.536;2023-05-07T06:49:13;31.40;;;25.77;;
52033;SDS011;38045;52.988;6.536;2023-05-07T06:51:40;30.77;;;26.83;;
52033;SDS011;38045;52.988;6.536;2023-05-07T06:54:06;38.28;;;30.25;;
52033;SDS011;38045;52.988;6.536;2023-05-07T06:56:32;34.80;;;27.42;;
52033;SDS011;38045;52.988;6.536;2023-05-07T06:58:59;33.60;;;29.90;;
52033;SDS011;38045;52.988;6.536;2023-05-07T07:01:25;31.00;;;27.48;;
52033;SDS011;38045;52.988;6.536;2023-05-07T07:03:50;32.75;;;28.00;;
52033;SDS011;38045;52.988;6.536;2023-05-07T07:06:16;35.42;;;28.00;;
52033;SDS011;38045;52.988;6.536;2023-05-07T07:08:42;33.00;;;28.63;;
52033;SDS011;38045;52.988;6.536;2023-05-07T07:11:08;35.17;;;28.38;;
52033;SDS011;38045;52.988;6.536;2023-05-07T07:13:35;34.08;;;26.35;;
52033;SDS011;38045;52.988;6.536;2023-05-07T07:16:00;32.45;;;26.30;;
52033;SDS011;38045;52.988;6.536;2023-05-07T07:18:26;32.70;;;28.08;;
52033;SDS011;38045;52.988;6.536;2023-05-07T07:20:52;33.70;;;29.40;;
52033;SDS011;38045;52.988;6.536;2023-05-07T07:23:17;41.30;;;27.40;;
52033;SDS011;38045;52.988;6.536;2023-05-07T07:25:43;34.83;;;29.77;;
52033;SDS011;38045;52.988;6.536;2023-05-07T07:28:09;30.52;;;27.23;;
52033;SDS011;38045;52.988;6.536;2023-05-07T07:30:35;31.75;;;25.77;;
52033;SDS011;38045;52.988;6.536;2023-05-07T07:33:01;29.88;;;25.08;;
52033;SDS011;38045;52.988;6.536;2023-05-07T07:35:34;34.22;;;26.17;;
52033;SDS011;38045;52.988;6.536;2023-05-07T07:37:59;33.50;;;27.17;;
52033;SDS011;38045;52.988;6.536;2023-05-07T07:40:26;33.35;;;28.90;;
52033;SDS011;38045;52.988;6.536;2023-05-07T07:42:52;35.45;;;31.63;;
52033;SDS011;38045;52.988;6.536;2023-05-07T07:45:19;34.33;;;28.60;;
52033;SDS011;38045;52.988;6.536;2023-05-07T07:47:45;34.15;;;27.95;;
52033;SDS011;38045;52.988;6.536;2023-05-07T07:50:10;31.85;;;27.90;;
52033;SDS011;38045;52.988;6.536;2023-05-07T07:52:36;34.70;;;27.10;;
52033;SDS011;38045;52.988;6.536;2023-05-07T07:55:02;33.33;;;29.33;;
52033;SDS011;38045;52.988;6.536;2023-05-07T07:57:28;35.58;;;28.48;;
52033;SDS011;38045;52.988;6.536;2023-05-07T07:59:54;34.05;;;28.02;;
52033;SDS011;38045;52.988;6.536;2023-05-07T08:02:19;32.70;;;28.48;;
52033;SDS011;38045;52.988;6.536;2023-05-07T08:04:45;35.33;;;29.17;;
52033;SDS011;38045;52.988;6.536;2023-05-07T08:07:11;33.83;;;27.05;;
52033;SDS011;38045;52.988;6.536;2023-05-07T08:09:37;38.35;;;29.42;;
52033;SDS011;38045;52.988;6.536;2023-05-07T08:12:03;35.38;;;27.83;;
52033;SDS011;38045;52.988;6.536;2023-05-07T08:14:30;36.88;;;32.95;;
52033;SDS011;38045;52.988;6.536;2023-05-07T08:16:56;37.42;;;31.23;;
52033;SDS011;38045;52.988;6.536;2023-05-07T08:19:21;36.10;;;29.75;;
52033;SDS011;38045;52.988;6.536;2023-05-07T08:21:47;36.95;;;29.65;;
52033;SDS011;38045;52.988;6.536;2023-05-07T08:24:13;39.88;;;33.25;;
52033;SDS011;38045;52.988;6.536;2023-05-07T08:26:39;36.20;;;28.23;;
52033;SDS011;38045;52.988;6.536;2023-05-07T08:29:05;35.20;;;28.05;;
52033;SDS011;38045;52.988;6.536;2023-05-07T08:31:31;34.88;;;28.33;;
52033;SDS011;38045;52.988;6.536;2023-05-07T08:33:57;37.03;;;29.65;;
52033;SDS011;38045;52.988;6.536;2023-05-07T08:36:25;29.10;;;25.05;;
52033;SDS011;38045;52.988;6.536;2023-05-07T08:38:51;34.00;;;27.50;;
52033;SDS011;38045;52.988;6.536;2023-05-07T08:41:17;35.85;;;30.33;;
52033;SDS011;38045;52.988;6.536;2023-05-07T08:43:43;33.03;;;28.00;;
52033;SDS011;38045;52.988;6.536;2023-05-07T08:46:17;35.17;;;28.77;;
52033;SDS011;38045;52.988;6.536;2023-05-07T08:48:44;35.92;;;28.52;;
52033;SDS011;38045;52.988;6.536;2023-05-07T08:51:13;33.40;;;27.85;;
52033;SDS011;38045;52.988;6.536;2023-05-07T08:53:40;37.65;;;30.23;;
52033;SDS011;38045;52.988;6.536;2023-05-07T08:56:06;34.25;;;27.88;;
52033;SDS011;38045;52.988;6.536;2023-05-07T08:58:33;30.38;;;25.90;;
52033;SDS011;38045;52.988;6.536;2023-05-07T09:01:00;32.53;;;28.65;;
52033;SDS011;38045;52.988;6.536;2023-05-07T09:03:31;38.20;;;28.88;;
52033;SDS011;38045;52.988;6.536;2023-05-07T09:05:57;30.23;;;27.05;;
52033;SDS011;38045;52.988;6.536;2023-05-07T09:08:26;33.08;;;28.17;;
52033;SDS011;38045;52.988;6.536;2023-05-07T09:10:52;32.97;;;27.77;;
52033;SDS011;38045;52.988;6.536;2023-05-07T09:13:18;30.73;;;25.05;;
52033;SDS011;38045;52.988;6.536;2023-05-07T09:15:44;26.88;;;23.33;;
52033;SDS011;38045;52.988;6.536;2023-05-07T09:18:10;35.67;;;25.48;;
52033;SDS011;38045;52.988;6.536;2023-05-07T09:20:36;32.88;;;27.95;;
52033;SDS011;38045;52.988;6.536;2023-05-07T09:23:02;29.75;;;25.00;;
52033;SDS011;38045;52.988;6.536;2023-05-07T09:25:34;28.90;;;25.98;;
52033;SDS011;38045;52.988;6.536;2023-05-07T09:28:01;30.15;;;24.67;;
52033;SDS011;38045;52.988;6.536;2023-05-07T09:30:31;30.45;;;25.58;;
52033;SDS011;38045;52.988;6.536;2023-05-07T09:32:58;29.58;;;26.48;;
52033;SDS011;38045;52.988;6.536;2023-05-07T09:35:25;32.78;;;29.10;;
52033;SDS011;38045;52.988;6.536;2023-05-07T09:37:57;32.63;;;26.30;;
52033;SDS011;38045;52.988;6.536;2023-05-07T09:40:28;27.73;;;24.77;;
52033;SDS011;38045;52.988;6.536;2023-05-07T09:42:55;27.88;;;23.45;;
52033;SDS011;38045;52.988;6.536;2023-05-07T09:45:21;28.25;;;24.73;;
52033;SDS011;38045;52.988;6.536;2023-05-07T09:47:54;27.77;;;24.63;;
52033;SDS011;38045;52.988;6.536;2023-05-07T09:50:22;27.08;;;22.52;;
52033;SDS011;38045;52.988;6.536;2023-05-07T09:52:52;26.30;;;23.50;;
52033;SDS011;38045;52.988;6.536;2023-05-07T09:55:20;24.60;;;21.77;;
52033;SDS011;38045;52.988;6.536;2023-05-07T09:57:46;26.10;;;22.98;;
52033;SDS011;38045;52.988;6.536;2023-05-07T10:00:18;24.20;;;21.38;;
52033;SDS011;38045;52.988;6.536;2023-05-07T10:02:45;24.65;;;22.15;;
52033;SDS011;38045;52.988;6.536;2023-05-07T10:05:17;25.90;;;23.13;;
52033;SDS011;38045;52.988;6.536;2023-05-07T10:07:44;23.23;;;20.73;;
52033;SDS011;38045;52.988;6.536;2023-05-07T10:10:10;24.52;;;21.50;;
52033;SDS011;38045;52.988;6.536;2023-05-07T10:12:37;24.00;;;21.45;;
52033;SDS011;38045;52.988;6.536;2023-05-07T10:15:12;24.20;;;21.65;;
52033;SDS011;38045;52.988;6.536;2023-05-07T10:17:39;24.80;;;22.48;;
52033;SDS011;38045;52.988;6.536;2023-05-07T10:20:06;23.23;;;20.80;;
52033;SDS011;38045;52.988;6.536;2023-05-07T10:22:36;22.92;;;20.52;;
52033;SDS011;38045;52.988;6.536;2023-05-07T10:25:20;22.33;;;19.17;;
52033;SDS011;38045;52.988;6.536;2023-05-07T10:27:55;22.00;;;19.73;;
52033;SDS011;38045;52.988;6.536;2023-05-07T10:30:40;22.58;;;20.27;;
52033;SDS011;38045;52.988;6.536;2023-05-07T10:33:19;24.95;;;22.48;;
52033;SDS011;38045;52.988;6.536;2023-05-07T10:35:49;20.13;;;17.83;;
52033;SDS011;38045;52.988;6.536;2023-05-07T10:38:15;21.50;;;19.45;;
52033;SDS011;38045;52.988;6.536;2023-05-07T10:40:41;22.63;;;20.25;;
52033;SDS011;38045;52.988;6.536;2023-05-07T10:43:08;21.85;;;19.70;;
52033;SDS011;38045;52.988;6.536;2023-05-07T10:45:33;19.13;;;16.70;;
52033;SDS011;38045;52.988;6.536;2023-05-07T10:48:12;21.13;;;17.65;;
52033;SDS011;38045;52.988;6.536;2023-05-07T10:50:39;22.23;;;19.45;;
52033;SDS011;38045;52.988;6.536;2023-05-07T10:55:44;21.88;;;19.65;;
52033;SDS011;38045;52.988;6.536;2023-05-07T10:58:32;19.30;;;17.15;;
52033;SDS011;38045;52.988;6.536;2023-05-07T11:01:00;21.45;;;19.45;;
52033;SDS011;38045;52.988;6.536;2023-05-07T11:03:27;21.70;;;19.58;;
52033;SDS011;38045;52.988;6.536;2023-05-07T11:06:09;20.17;;;17.65;;
52033;SDS011;38045;52.988;6.536;2023-05-07T11:08:56;21.85;;;18.27;;
52033;SDS011;38045;52.988;6.536;2023-05-07T11:15:02;23.25;;;20.92;;
52033;SDS011;38045;52.988;6.536;2023-05-07T11:17:10;18.83;;;16.90;;
52033;SDS011;38045;52.988;6.536;2023-05-07T11:19:52;20.25;;;18.23;;
52033;SDS011;38045;52.988;6.536;2023-05-07T11:25:01;19.25;;;17.27;;
52033;SDS011;38045;52.988;6.536;2023-05-07T11:27:27;19.08;;;17.17;;
52033;SDS011;38045;52.988;6.536;2023-05-07T11:29:54;20.27;;;18.30;;
52033;SDS011;38045;52.988;6.536;2023-05-07T11:32:23;20.55;;;18.08;;
52033;SDS011;38045;52.988;6.536;2023-05-07T11:34:57;19.15;;;17.25;;
52033;SDS011;38045;52.988;6.536;2023-05-07T11:37:24;18.55;;;16.83;;
52033;SDS011;38045;52.988;6.536;2023-05-07T11:40:02;20.00;;;17.92;;
52033;SDS011;38045;52.988;6.536;2023-05-07T11:42:30;19.02;;;16.25;;
52033;SDS011;38045;52.988;6.536;2023-05-07T11:44:57;22.48;;;17.23;;
52033;SDS011;38045;52.988;6.536;2023-05-07T11:47:23;22.65;;;19.60;;
52033;SDS011;38045;52.988;6.536;2023-05-07T11:49:53;19.33;;;17.48;;
52033;SDS011;38045;52.988;6.536;2023-05-07T11:52:20;16.83;;;15.30;;
52033;SDS011;38045;52.988;6.536;2023-05-07T11:59:42;18.60;;;16.73;;
52033;SDS011;38045;52.988;6.536;2023-05-07T12:02:13;20.10;;;18.20;;
52033;SDS011;38045;52.988;6.536;2023-05-07T12:04:40;19.65;;;17.63;;
52033;SDS011;38045;52.988;6.536;2023-05-07T12:07:15;18.52;;;16.83;;
52033;SDS011;38045;52.988;6.536;2023-05-07T12:09:41;20.55;;;18.08;;
52033;SDS011;38045;52.988;6.536;2023-05-07T12:12:07;19.50;;;17.25;;
52033;SDS011;38045;52.988;6.536;2023-05-07T12:14:32;21.88;;;19.58;;
52033;SDS011;38045;52.988;6.536;2023-05-07T12:17:02;18.80;;;17.10;;
52033;SDS011;38045;52.988;6.536;2023-05-07T12:19:29;19.23;;;17.33;;
52033;SDS011;38045;52.988;6.536;2023-05-07T12:21:55;17.25;;;15.35;;
52033;SDS011;38045;52.988;6.536;2023-05-07T12:24:21;19.92;;;17.42;;
52033;SDS011;38045;52.988;6.536;2023-05-07T12:26:47;20.52;;;18.48;;
52033;SDS011;38045;52.988;6.536;2023-05-07T12:29:13;19.95;;;17.80;;
52033;SDS011;38045;52.988;6.536;2023-05-07T12:31:42;20.35;;;18.15;;
52033;SDS011;38045;52.988;6.536;2023-05-07T12:36:38;18.40;;;16.67;;
52033;SDS011;38045;52.988;6.536;2023-05-07T12:39:08;18.63;;;16.75;;
52033;SDS011;38045;52.988;6.536;2023-05-07T12:44:22;18.83;;;16.98;;
52033;SDS011;38045;52.988;6.536;2023-05-07T12:46:49;19.65;;;17.63;;
52033;SDS011;38045;52.988;6.536;2023-05-07T12:49:15;20.38;;;18.52;;
52033;SDS011;38045;52.988;6.536;2023-05-07T12:51:40;18.85;;;17.13;;
52033;SDS011;38045;52.988;6.536;2023-05-07T12:54:06;19.10;;;17.30;;
52033;SDS011;38045;52.988;6.536;2023-05-07T12:56:32;17.67;;;15.88;;
52033;SDS011;38045;52.988;6.536;2023-05-07T13:01:29;20.50;;;18.40;;
52033;SDS011;38045;52.988;6.536;2023-05-07T13:04:02;20.23;;;18.35;;
52033;SDS011;38045;52.988;6.536;2023-05-07T13:06:29;17.95;;;16.17;;
52033;SDS011;38045;52.988;6.536;2023-05-07T13:08:56;18.50;;;16.65;;
52033;SDS011;38045;52.988;6.536;2023-05-07T13:11:21;18.60;;;16.88;;
52033;SDS011;38045;52.988;6.536;2023-05-07T13:13:47;19.33;;;17.45;;
52033;SDS011;38045;52.988;6.536;2023-05-07T13:16:13;21.52;;;18.70;;
52033;SDS011;38045;52.988;6.536;2023-05-07T13:18:39;17.52;;;16.00;;
52033;SDS011;38045;52.988;6.536;2023-05-07T13:21:05;20.20;;;18.23;;
52033;SDS011;38045;52.988;6.536;2023-05-07T13:23:31;20.05;;;18.05;;
52033;SDS011;38045;52.988;6.536;2023-05-07T13:25:57;18.90;;;17.05;;
52033;SDS011;38045;52.988;6.536;2023-05-07T13:28:23;19.45;;;17.58;;
52033;SDS011;38045;52.988;6.536;2023-05-07T13:30:49;18.63;;;16.85;;
52033;SDS011;38045;52.988;6.536;2023-05-07T13:33:16;18.52;;;16.77;;
52033;SDS011;38045;52.988;6.536;2023-05-07T13:35:42;17.30;;;15.57;;
52033;SDS011;38045;52.988;6.536;2023-05-07T13:38:08;17.42;;;15.82;;
52033;SDS011;38045;52.988;6.536;2023-05-07T13:40:33;19.30;;;17.48;;
52033;SDS011;38045;52.988;6.536;2023-05-07T13:42:59;15.65;;;14.25;;
52033;SDS011;38045;52.988;6.536;2023-05-07T13:45:27;16.73;;;15.02;;
52033;SDS011;38045;52.988;6.536;2023-05-07T13:47:54;17.13;;;15.40;;
52033;SDS011;38045;52.988;6.536;2023-05-07T13:50:20;15.13;;;13.82;;
52033;SDS011;38045;52.988;6.536;2023-05-07T13:52:46;17.35;;;15.70;;
52033;SDS011;38045;52.988;6.536;2023-05-07T13:55:18;16.35;;;14.88;;
52033;SDS011;38045;52.988;6.536;2023-05-07T13:57:45;15.65;;;14.20;;
52033;SDS011;38045;52.988;6.536;2023-05-07T14:00:12;14.52;;;13.23;;
52033;SDS011;38045;52.988;6.536;2023-05-07T14:02:38;17.92;;;16.33;;
52033;SDS011;38045;52.988;6.536;2023-05-07T14:05:05;15.00;;;13.55;;
52033;SDS011;38045;52.988;6.536;2023-05-07T14:07:31;16.50;;;14.80;;
52033;SDS011;38045;52.988;6.536;2023-05-07T14:09:57;15.25;;;13.65;;
52033;SDS011;38045;52.988;6.536;2023-05-07T14:12:22;18.10;;;14.27;;
52033;SDS011;38045;52.988;6.536;2023-05-07T14:14:48;13.77;;;12.50;;
52033;SDS011;38045;52.988;6.536;2023-05-07T14:17:16;15.95;;;14.32;;
52033;SDS011;38045;52.988;6.536;2023-05-07T14:19:42;14.32;;;13.02;;
52033;SDS011;38045;52.988;6.536;2023-05-07T14:22:08;14.40;;;13.10;;
52033;SDS011;38045;52.988;6.536;2023-05-07T14:24:34;11.15;;;10.05;;
52033;SDS011;38045;52.988;6.536;2023-05-07T14:26:59;11.52;;;10.52;;
52033;SDS011;38045;52.988;6.536;2023-05-07T14:29:25;11.30;;;10.30;;
52033;SDS011;38045;52.988;6.536;2023-05-07T14:31:50;13.18;;;12.05;;
52033;SDS011;38045;52.988;6.536;2023-05-07T14:34:16;13.02;;;11.68;;
52033;SDS011;38045;52.988;6.536;2023-05-07T14:36:41;12.55;;;11.25;;
52033;SDS011;38045;52.988;6.536;2023-05-07T14:39:08;12.18;;;11.18;;
52033;SDS011;38045;52.988;6.536;2023-05-07T14:41:34;12.43;;;11.23;;